Time;durP1;ratioP1;P1;durP2;ratioP2;P2;SDS_P1;SDS_P2;PMS_P1;PMS_P2;Temp;Humidity;BMP_temperature;BMP_pressure;BME280_temperature;BME280_humidity;BME280_pressure;Samples;Min_cycle;Max_cycle;Signal;HPM_P1;HPM_P2
2021/12/18 00:01:30;;;;;;;10.57;3.08;;;;;;;4.57;60.87;99817.06;4471746;32;20104;-83
2021/12/18 00:03:56;;;;;;;13.85;3.20;;;;;;;4.53;60.84;99808.41;4486284;32;20112;-83
2021/12/18 00:06:22;;;;;;;15.25;3.45;;;;;;;4.50;61.09;99805.81;4486134;32;20107;-84
2021/12/18 00:08:48;;;;;;;11.63;3.50;;;;;;;4.34;61.41;99819.06;4486069;32;20108;-83
2021/12/18 00:11:14;;;;;;;12.48;3.37;;;;;;;4.29;61.79;99812.22;4472154;32;20131;-83
2021/12/18 00:13:39;;;;;;;11.32;3.50;;;;;;;4.32;nan;99818.22;4486279;32;20089;-83
2021/12/18 00:16:06;;;;;;;12.30;3.92;;;;;;;4.20;61.89;99825.34;4471592;32;20106;-83
2021/12/18 00:18:31;;;;;;;14.25;4.32;;;;;;;4.18;62.11;99824.50;4485969;32;20478;-83
2021/12/18 00:20:58;;;;;;;13.75;4.18;;;;;;;4.36;61.57;99826.88;4485735;32;20093;-83
2021/12/18 00:23:25;;;;;;;12.63;3.65;;;;;;;4.40;61.55;99830.31;4487234;32;20092;-83
2021/12/18 00:25:51;;;;;;;13.18;3.80;;;;;;;4.41;61.60;99830.31;4488010;32;20179;-83
2021/12/18 00:28:16;;;;;;;12.63;4.10;;;;;;;4.08;62.28;99840.25;4487890;32;20610;-83
2021/12/18 00:30:41;;;;;;;13.70;3.72;;;;;;;3.93;63.05;99848.25;4488128;32;20118;-83
2021/12/18 00:33:08;;;;;;;14.52;4.18;;;;;;;3.93;63.23;99841.28;4473734;32;20092;-84
2021/12/18 00:35:34;;;;;;;12.73;4.07;;;;;;;3.79;63.62;99847.53;4487945;32;20084;-83
2021/12/18 00:38:04;;;;;;;11.57;3.70;;;;;;;4.05;62.87;99848.09;4473746;32;20134;-83
2021/12/18 00:40:42;;;;;;;11.75;3.72;;;;;;;4.04;62.91;99842.94;4487915;32;20084;-84
2021/12/18 00:43:22;;;;;;;14.63;4.20;;;;;;;4.18;62.11;99837.56;4473878;32;20171;-84
2021/12/18 00:45:47;;;;;;;13.23;4.15;;;;;;;3.91;63.08;99831.75;4488275;32;20114;-84
2021/12/18 00:48:13;;;;;;;13.88;3.92;;;;;;;3.89;63.18;99836.13;4488232;32;20436;-83
2021/12/18 00:50:38;;;;;;;12.27;4.00;;;;;;;3.84;63.38;99833.53;4473745;32;20096;-83
2021/12/18 00:53:03;;;;;;;15.00;3.97;;;;;;;3.94;63.13;99829.97;4488179;32;20081;-83
2021/12/18 00:55:29;;;;;;;13.15;3.83;;;;;;;3.91;63.31;99844.78;4473889;32;20127;-84
2021/12/18 00:57:55;;;;;;;13.13;3.90;;;;;;;3.70;63.80;99830.22;4487977;32;20120;-82
2021/12/18 01:00:23;;;;;;;12.82;4.07;;;;;;;3.65;64.31;99834.63;4473651;32;20096;-83
2021/12/18 01:02:52;;;;;;;13.68;4.07;;;;;;;3.79;63.74;99824.06;4488118;32;20088;-83
2021/12/18 01:05:18;;;;;;;11.05;3.87;;;;;;;3.71;63.92;99813.72;4487999;32;20179;-83
2021/12/18 01:07:43;;;;;;;12.82;3.90;;;;;;;3.68;64.10;99826.78;4473661;32;20437;-83
2021/12/18 01:12:40;;;;;;;14.75;4.03;;;;;;;3.80;63.79;99825.78;4487636;32;20469;-83
2021/12/18 01:15:16;;;;;;;12.30;3.78;;;;;;;4.07;62.89;99825.47;4487687;32;20073;-83
2021/12/18 01:23:10;;;;;;;12.68;3.60;;;;;;;4.41;62.05;99837.28;4475502;32;20553;-83
2021/12/18 01:25:36;;;;;;;14.30;4.70;;;;;;;3.99;63.50;99842.97;4487588;32;20394;-83
2021/12/18 01:28:01;;;;;;;12.77;4.50;;;;;;;3.82;64.39;99837.06;4487503;32;20119;-82
2021/12/18 01:30:27;;;;;;;12.40;4.32;;;;;;;3.71;64.55;99845.84;4487791;32;20088;-83
2021/12/18 01:32:55;;;;;;;13.40;4.22;;;;;;;4.26;62.99;99852.22;4487775;32;20125;-83
2021/12/18 01:35:21;;;;;;;12.40;3.92;;;;;;;4.09;63.21;99855.00;4472647;32;20092;-83
2021/12/18 01:37:47;;;;;;;13.25;4.00;;;;;;;4.07;63.48;99863.72;4487518;32;20097;-84
2021/12/18 01:40:13;;;;;;;13.70;4.32;;;;;;;3.72;64.69;99862.34;4487452;32;20088;-84
2021/12/18 01:53:07;;;;;;;14.60;4.68;;;;;;;4.00;63.49;99859.47;4475341;32;20607;-82
2021/12/18 01:55:35;;;;;;;16.62;4.78;;;;;;;3.77;64.36;99873.59;4487587;32;20088;-83
2021/12/18 01:58:01;;;;;;;14.07;4.90;;;;;;;4.18;63.08;99877.53;4473138;32;20158;-82
2021/12/18 02:00:34;;;;;;;12.85;4.15;;;;;;;4.39;62.43;99873.81;4487155;32;20477;-83
2021/12/18 02:03:00;;;;;;;14.02;5.47;;;;;;;3.97;63.64;99875.16;4473410;32;20088;-83
2021/12/18 02:05:25;;;;;;;13.55;4.87;;;;;;;3.83;63.79;99876.16;4487337;32;20084;-83
2021/12/18 02:07:51;;;;;;;14.98;5.45;;;;;;;3.89;63.80;99873.47;4487304;32;20108;-82
2021/12/18 02:10:22;;;;;;;16.30;5.15;;;;;;;4.12;63.19;99875.00;4487346;32;20155;-83
2021/12/18 02:20:53;;;;;;;;;;;;;;;4.07;63.53;99888.06;4475466;32;20172;-84
2021/12/18 02:23:18;;;;;;;13.88;4.70;;;;;;;4.00;63.76;99893.34;4487138;32;19971;-83
2021/12/18 02:25:46;;;;;;;14.55;4.78;;;;;;;4.27;62.84;99889.63;4473022;32;20412;-84
2021/12/18 02:28:19;;;;;;;13.40;4.93;;;;;;;4.38;62.42;99900.75;4473122;32;20105;-84
2021/12/18 02:30:46;;;;;;;15.13;4.97;;;;;;;4.41;62.18;99905.09;4473801;32;20088;-83
2021/12/18 02:33:12;;;;;;;16.67;5.57;;;;;;;4.30;62.49;99900.84;4472856;32;20084;-83
2021/12/18 02:35:44;;;;;;;14.68;5.10;;;;;;;4.17;62.80;99906.22;4472741;32;20416;-82
2021/12/18 02:38:23;;;;;;;14.40;5.35;;;;;;;4.23;62.37;99904.44;4473612;32;20482;-84
2021/12/18 02:43:17;;;;;;;15.13;5.00;;;;;;;4.32;62.43;99919.09;4487103;32;20088;-84
2021/12/18 02:45:42;;;;;;;12.43;4.87;;;;;;;4.07;63.04;99911.53;4486587;32;20072;-84
2021/12/18 02:48:08;;;;;;;13.98;5.35;;;;;;;3.61;64.44;99926.72;4472642;32;20101;-82
2021/12/18 02:50:38;;;;;;;14.18;4.30;;;;;;;4.06;63.14;99928.06;4487169;32;20104;-83
2021/12/18 02:53:05;;;;;;;13.93;5.30;;;;;;;3.96;63.16;99930.75;4487022;32;20089;-82
2021/12/18 02:55:30;;;;;;;15.43;4.75;;;;;;;3.78;63.90;99917.03;4487120;32;20080;-83
2021/12/18 02:57:55;;;;;;;13.35;4.80;;;;;;;3.85;63.74;99916.09;4486831;32;20115;-82
2021/12/18 03:00:23;;;;;;;15.55;5.03;;;;;;;3.81;64.01;99917.00;4486577;32;20085;-82
2021/12/18 03:02:48;;;;;;;16.58;4.72;;;;;;;3.98;63.48;99902.94;4487102;32;20103;-83
2021/12/18 03:05:21;;;;;;;15.27;4.70;;;;;;;3.72;64.07;99904.03;4486721;32;20412;-83
2021/12/18 03:07:51;;;;;;;13.10;4.00;;;;;;;4.03;63.25;99907.22;4486965;32;20106;-83
2021/12/18 03:24:07;;;;;;;15.35;4.87;;;;;;;4.03;63.33;99938.50;4473620;32;20114;-82
2021/12/18 03:26:32;;;;;;;15.82;4.65;;;;;;;3.89;63.91;99946.47;4474615;32;20076;-83
2021/12/18 03:28:58;;;;;;;17.65;4.95;;;;;;;3.93;63.61;99957.75;4472444;32;20139;-83
2021/12/18 03:31:23;;;;;;;15.35;5.00;;;;;;;3.88;63.77;99955.19;4486664;32;20088;-83
2021/12/18 03:33:49;;;;;;;13.27;4.75;;;;;;;3.70;64.17;99957.94;4472621;32;20116;-83
2021/12/18 03:36:14;;;;;;;12.70;4.62;;;;;;;3.67;64.25;99955.31;4486866;32;20081;-83
2021/12/18 03:38:39;;;;;;;14.77;4.50;;;;;;;3.59;64.32;99958.00;4486694;32;20124;-82
2021/12/18 03:41:05;;;;;;;13.60;4.70;;;;;;;3.67;64.25;99955.31;4486643;32;20084;-83
2021/12/18 03:43:30;;;;;;;14.02;4.32;;;;;;;3.68;64.34;99964.91;4486781;32;20137;-83
2021/12/18 03:45:55;;;;;;;15.93;5.00;;;;;;;3.60;64.46;99967.56;4486564;32;20084;-83
2021/12/18 03:48:21;;;;;;;14.02;4.55;;;;;;;3.76;64.03;99947.44;4486650;32;20096;-83
2021/12/18 03:50:47;;;;;;;13.27;5.10;;;;;;;3.36;65.35;99955.53;4472394;32;20136;-82
2021/12/18 03:53:12;;;;;;;13.88;4.65;;;;;;;3.56;64.72;99958.03;4486348;32;20072;-83
2021/12/18 03:55:38;;;;;;;13.10;4.53;;;;;;;3.47;64.80;99958.94;4486345;32;20436;-83
2021/12/18 03:58:03;;;;;;;14.75;4.53;;;;;;;3.63;64.50;99959.72;4487194;32;20435;-83
2021/12/18 04:00:29;;;;;;;14.50;5.50;;;;;;;3.61;64.62;99969.31;4473766;32;20149;-83
2021/12/18 04:02:54;;;;;;;13.23;4.70;;;;;;;3.72;64.13;99977.87;4488307;32;20164;-83
2021/12/18 04:05:19;;;;;;;19.17;4.95;;;;;;;3.82;63.91;99972.59;4488049;32;20103;-83
2021/12/18 04:07:49;;;;;;;14.50;5.03;;;;;;;3.53;64.81;99978.87;4488103;32;20092;-82
2021/12/18 04:10:16;;;;;;;15.55;5.20;;;;;;;3.85;64.05;99965.63;4488153;32;20555;-83
2021/12/18 04:12:42;;;;;;;16.17;4.68;;;;;;;3.76;63.96;99944.84;4488149;32;20103;-83
2021/12/18 04:15:08;;;;;;;13.85;4.90;;;;;;;3.59;64.78;99949.31;4488035;32;20348;-83
2021/12/18 04:17:33;;;;;;;14.65;4.82;;;;;;;3.76;64.22;99949.19;4488094;32;20112;-83
2021/12/18 04:19:59;;;;;;;15.77;5.53;;;;;;;3.86;63.85;99935.19;4488089;32;20072;-83
2021/12/18 04:22:24;;;;;;;17.77;5.00;;;;;;;3.81;63.60;99942.22;4487980;32;20068;-83
2021/12/18 04:24:50;;;;;;;16.73;4.28;;;;;;;3.75;63.95;99945.72;4473738;32;20111;-83
2021/12/18 04:27:16;;;;;;;13.70;4.30;;;;;;;3.83;63.65;99951.75;4473776;32;20127;-83
2021/12/18 04:29:41;;;;;;;14.18;4.43;;;;;;;3.35;65.09;99965.09;4487928;32;20128;-83
2021/12/18 04:32:07;;;;;;;13.73;5.07;;;;;;;3.64;64.30;99971.88;4488018;32;20116;-83
2021/12/18 04:34:32;;;;;;;17.48;4.72;;;;;;;3.35;65.04;99965.09;4488216;32;20084;-83
2021/12/18 04:36:58;;;;;;;13.27;4.75;;;;;;;3.45;64.82;99973.72;4487936;32;20124;-83
2021/12/18 04:39:23;;;;;;;15.10;4.55;;;;;;;3.59;64.55;99965.81;4487998;32;20111;-84
2021/12/18 04:41:51;;;;;;;12.90;4.53;;;;;;;3.42;64.79;99971.16;4473658;32;20369;-84
2021/12/18 04:44:17;;;;;;;13.82;4.12;;;;;;;3.35;64.65;99974.66;4487892;32;20108;-83
2021/12/18 04:46:43;;;;;;;16.15;4.80;;;;;;;3.31;64.81;99984.22;4487967;32;20093;-83
2021/12/18 04:49:09;;;;;;;15.75;4.53;;;;;;;3.24;65.22;99994.69;4487750;32;20321;-84
2021/12/18 04:51:34;;;;;;;13.15;5.20;;;;;;;3.64;63.95;100002.28;4473582;32;20080;-82
2021/12/18 04:54:00;;;;;;;13.25;4.57;;;;;;;3.52;64.24;100000.63;4473584;32;20096;-89
2021/12/18 04:56:25;;;;;;;13.77;3.78;;;;;;;3.28;64.85;100018.12;4488082;32;20097;-83
2021/12/18 04:58:51;;;;;;;15.13;4.45;;;;;;;3.27;64.97;100012.91;4473618;32;20104;-84
2021/12/18 05:01:17;;;;;;;16.40;5.78;;;;;;;3.46;64.31;100009.34;4487400;32;20112;-84
2021/12/18 05:03:44;;;;;;;12.05;4.28;;;;;;;3.44;64.46;100013.69;4487851;32;20118;-83
2021/12/18 05:06:10;;;;;;;12.47;4.33;;;;;;;3.29;64.81;100013.78;4487876;32;20438;-81
2021/12/18 05:08:35;;;;;;;14.65;4.68;;;;;;;3.21;65.09;100019.03;4460303;32;20108;-82
2021/12/18 05:11:00;;;;;;;14.80;4.50;;;;;;;3.24;65.02;100029.41;4487807;32;20382;-81
2021/12/18 05:13:26;;;;;;;14.18;4.22;;;;;;;3.20;64.86;100029.44;4473418;32;20396;-84
2021/12/18 05:15:51;;;;;;;15.05;4.62;;;;;;;3.31;64.12;100032.88;4487702;32;20134;-84
2021/12/18 05:18:17;;;;;;;13.98;4.00;;;;;;;3.39;63.77;100038.03;4473343;32;20152;-84
2021/12/18 05:20:42;;;;;;;15.18;4.57;;;;;;;3.44;63.50;100051.88;4487557;32;20085;-84
2021/12/18 05:23:08;;;;;;;13.23;4.43;;;;;;;3.52;62.92;100040.56;4473653;32;20088;-84
2021/12/18 05:25:33;;;;;;;12.75;4.72;;;;;;;3.59;62.60;100036.16;4487815;32;20361;-84
2021/12/18 05:27:59;;;;;;;12.75;4.85;;;;;;;3.63;62.61;100048.31;4487854;32;20085;-84
2021/12/18 05:30:24;;;;;;;16.08;4.47;;;;;;;3.38;63.32;100047.59;4487748;32;20089;-84
2021/12/18 05:32:50;;;;;;;15.43;4.97;;;;;;;3.17;63.71;100045.06;4487796;32;20076;-84
2021/12/18 05:35:16;;;;;;;17.30;4.65;;;;;;;3.26;63.52;100048.50;4487767;32;20085;-84
2021/12/18 05:37:48;;;;;;;15.40;4.75;;;;;;;3.55;62.37;100039.66;4487886;32;20093;-84
2021/12/18 05:40:16;;;;;;;13.10;4.47;;;;;;;3.51;62.40;100049.22;4487769;32;20432;-84
2021/12/18 05:42:43;;;;;;;17.30;4.40;;;;;;;3.17;63.45;100043.34;4487578;32;20106;-84
2021/12/18 05:45:09;;;;;;;14.90;4.70;;;;;;;3.07;63.51;100039.91;4487802;32;20088;-84
2021/12/18 05:47:35;;;;;;;15.50;4.00;;;;;;;3.26;63.28;100050.25;4487925;32;20122;-84
2021/12/18 05:50:00;;;;;;;13.02;4.53;;;;;;;3.15;63.34;100050.31;4487651;32;20080;-84
2021/12/18 05:52:26;;;;;;;13.27;3.90;;;;;;;3.18;63.46;100055.47;4487502;32;20124;-84
2021/12/18 05:54:51;;;;;;;14.43;5.00;;;;;;;3.32;62.62;100056.31;4487386;32;20088;-84
2021/12/18 05:57:17;;;;;;;15.20;4.40;;;;;;;3.14;63.31;100064.19;4487424;32;20111;-84
2021/12/18 05:59:43;;;;;;;13.95;4.18;;;;;;;3.59;62.02;100063.97;4487408;32;20412;-84
2021/12/18 06:02:08;;;;;;;11.43;3.92;;;;;;;3.42;62.15;100064.94;4487215;32;20106;-84
2021/12/18 06:04:34;;;;;;;15.50;5.15;;;;;;;3.31;62.45;100064.97;4487573;32;20436;-84
2021/12/18 06:07:06;;;;;;;14.75;5.05;;;;;;;3.23;62.66;100066.75;4487727;32;20436;-83
2021/12/18 06:09:35;;;;;;;12.88;4.30;;;;;;;3.35;62.59;100066.69;4487705;32;20102;-84
2021/12/18 06:12:02;;;;;;;14.63;4.10;;;;;;;3.30;62.54;100070.19;4487373;32;20129;-84
2021/12/18 06:14:28;;;;;;;14.13;3.95;;;;;;;3.37;62.03;100071.03;4487446;32;20093;-84
2021/12/18 06:16:54;;;;;;;13.30;4.40;;;;;;;3.39;62.03;100075.34;4487278;32;20096;-83
2021/12/18 06:19:19;;;;;;;11.95;3.97;;;;;;;3.57;61.42;100089.16;4487070;32;20076;-84
2021/12/18 06:21:45;;;;;;;13.40;4.37;;;;;;;3.46;61.51;100081.44;4472069;32;20103;-84
2021/12/18 06:24:10;;;;;;;13.35;4.50;;;;;;;3.57;61.12;100077.00;4487286;32;20136;-84
2021/12/18 06:26:36;;;;;;;12.40;4.07;;;;;;;3.32;61.73;100084.06;4472987;32;20087;-84
2021/12/18 06:29:01;;;;;;;12.05;4.35;;;;;;;3.13;62.03;100086.75;4487155;32;20131;-84
2021/12/18 06:31:27;;;;;;;15.63;4.95;;;;;;;3.26;61.85;100076.28;4459822;32;20404;-84
2021/12/18 06:33:52;;;;;;;12.55;4.07;;;;;;;3.15;61.95;100086.75;4487054;32;20092;-84
2021/12/18 06:36:18;;;;;;;10.77;3.47;;;;;;;3.15;61.70;100063.31;4472810;32;20416;-84
2021/12/18 06:38:43;;;;;;;13.43;4.40;;;;;;;3.22;61.36;100072.81;4487110;32;20123;-84
2021/12/18 06:41:09;;;;;;;14.23;4.47;;;;;;;3.09;61.78;100079.84;4472702;32;20103;-84
2021/12/18 06:43:34;;;;;;;16.40;4.20;;;;;;;3.22;61.57;100090.19;4487345;32;20093;-84
2021/12/18 06:46:00;;;;;;;11.85;3.85;;;;;;;3.35;61.19;100097.09;4487439;32;20092;-84
2021/12/18 06:48:25;;;;;;;17.37;4.53;;;;;;;3.21;61.62;100099.75;4487348;32;20080;-84
2021/12/18 06:50:51;;;;;;;12.63;4.07;;;;;;;3.14;61.81;100103.22;4487324;32;20421;-84
2021/12/18 06:53:16;;;;;;;14.18;3.92;;;;;;;3.10;61.69;100104.97;4487170;32;20084;-84
2021/12/18 06:55:42;;;;;;;13.02;4.30;;;;;;;3.46;60.79;100100.53;4487191;32;20231;-84
2021/12/18 06:58:07;;;;;;;12.82;4.00;;;;;;;3.21;61.44;100104.09;4472823;32;20076;-84
2021/12/18 07:00:33;;;;;;;13.13;3.75;;;;;;;3.48;60.83;100108.34;4486951;32;20137;-83
2021/12/18 07:02:59;;;;;;;14.65;4.43;;;;;;;3.54;60.70;100109.16;4487277;32;20116;-84
2021/12/18 07:05:25;;;;;;;11.35;3.37;;;;;;;3.69;59.99;100108.22;4472755;32;20155;-84
2021/12/18 07:07:51;;;;;;;10.88;3.78;;;;;;;3.83;59.47;100108.13;4487230;32;20081;-83
2021/12/18 07:10:18;;;;;;;11.45;4.03;;;;;;;3.78;59.33;100101.22;4486909;32;20079;-84
2021/12/18 07:12:43;;;;;;;12.52;3.80;;;;;;;3.37;60.30;100092.72;4486701;32;20092;-84
2021/12/18 07:15:10;;;;;;;12.02;3.47;;;;;;;3.44;59.82;100103.97;4472647;32;20087;-84
2021/12/18 07:17:36;;;;;;;11.82;3.78;;;;;;;3.42;60.17;100105.72;4486662;32;20133;-84
2021/12/18 07:20:03;;;;;;;10.75;3.55;;;;;;;3.80;59.04;100094.25;4472413;32;20088;-84
2021/12/18 07:22:28;;;;;;;12.88;3.83;;;;;;;3.85;58.59;100105.53;4472493;32;20157;-84
2021/12/18 07:24:54;;;;;;;8.98;3.35;;;;;;;4.05;58.01;100097.56;4472539;32;20100;-84
2021/12/18 07:27:19;;;;;;;12.77;3.53;;;;;;;3.70;58.93;100096.03;4486654;32;20084;-84
2021/12/18 07:29:44;;;;;;;10.52;3.20;;;;;;;3.81;58.68;100099.47;4486705;32;20439;-84
2021/12/18 07:32:11;;;;;;;9.98;3.42;;;;;;;4.14;57.65;100105.34;4485159;32;20481;-84
2021/12/18 07:34:37;;;;;;;13.77;3.85;;;;;;;3.61;59.11;100112.63;4486674;32;20092;-84
2021/12/18 07:37:03;;;;;;;11.68;3.47;;;;;;;3.82;58.78;100127.25;4486566;32;20076;-84
2021/12/18 07:39:28;;;;;;;11.38;3.83;;;;;;;3.87;58.90;100120.28;4486471;32;20080;-84
2021/12/18 07:41:54;;;;;;;14.45;3.83;;;;;;;4.07;58.42;100125.34;4486497;32;20088;-84
2021/12/18 07:44:19;;;;;;;16.15;4.20;;;;;;;4.01;58.38;100132.37;4486469;32;20077;-84
2021/12/18 07:46:44;;;;;;;12.40;3.72;;;;;;;4.00;58.47;100133.22;4472085;32;20126;-84
2021/12/18 07:49:10;;;;;;;11.70;3.65;;;;;;;4.04;58.55;100138.44;4486268;32;20103;-84
2021/12/18 07:51:36;;;;;;;13.57;4.10;;;;;;;4.07;58.60;100141.00;4486319;32;20134;-83
2021/12/18 07:54:05;;;;;;;11.25;3.55;;;;;;;4.04;58.58;100143.66;4486815;32;20081;-84
2021/12/18 07:56:31;;;;;;;14.80;4.20;;;;;;;4.02;59.00;100155.84;4486303;32;20107;-84
2021/12/18 07:58:56;;;;;;;13.77;4.12;;;;;;;3.91;59.05;100160.22;4486573;32;20081;-84
2021/12/18 08:01:22;;;;;;;12.63;4.40;;;;;;;4.00;59.41;100168.00;4471978;32;20116;-84
2021/12/18 08:03:48;;;;;;;13.55;4.53;;;;;;;4.07;59.05;100164.47;4486210;32;20088;-84
2021/12/18 08:06:14;;;;;;;12.13;3.55;;;;;;;3.88;59.46;100158.53;4486257;32;20212;-84
2021/12/18 08:08:40;;;;;;;13.82;3.95;;;;;;;4.16;58.91;100140.09;4486273;32;20068;-84
2021/12/18 08:11:05;;;;;;;12.68;4.10;;;;;;;4.07;59.10;100138.38;4486334;32;20084;-84
2021/12/18 08:13:31;;;;;;;12.98;4.07;;;;;;;3.71;60.23;100142.97;4485917;32;20136;-84
2021/12/18 08:15:56;;;;;;;12.27;4.05;;;;;;;3.89;59.77;100141.13;4471608;32;20456;-83
2021/12/18 08:18:21;;;;;;;13.00;4.03;;;;;;;3.91;59.62;100139.38;4485990;32;20073;-84
2021/12/18 08:20:47;;;;;;;11.98;3.60;;;;;;;3.83;59.71;100149.00;4485773;32;20440;-83
2021/12/18 08:23:13;;;;;;;14.30;4.30;;;;;;;4.14;58.96;100149.66;4485899;32;20128;-83
2021/12/18 08:25:38;;;;;;;12.55;3.85;;;;;;;4.37;58.28;100149.50;4485906;32;20084;-84
2021/12/18 08:28:04;;;;;;;14.20;3.45;;;;;;;4.02;58.95;100144.50;4471389;32;20332;-83
2021/12/18 08:30:31;;;;;;;14.30;4.80;;;;;;;3.81;59.65;100142.91;4485704;32;20115;-84
2021/12/18 08:33:00;;;;;;;12.43;3.72;;;;;;;3.93;59.37;100158.47;4471514;32;20164;-83
2021/12/18 08:35:27;;;;;;;14.95;4.28;;;;;;;4.13;58.78;100146.19;4485750;32;20092;-84
2021/12/18 08:37:53;;;;;;;14.15;3.67;;;;;;;4.09;59.16;100148.81;4485687;32;20152;-83
2021/12/18 08:40:19;;;;;;;12.73;3.80;;;;;;;3.81;59.63;100150.75;4485540;32;20108;-84
2021/12/18 08:42:45;;;;;;;14.07;3.87;;;;;;;4.38;58.23;100145.16;4485800;32;20537;-83
2021/12/18 08:45:11;;;;;;;12.32;4.20;;;;;;;4.53;57.72;100145.03;4487884;32;20088;-84
2021/12/18 08:47:36;;;;;;;11.30;3.80;;;;;;;4.34;57.69;100139.09;4487841;32;20140;-83
2021/12/18 08:50:03;;;;;;;14.65;4.47;;;;;;;4.41;57.93;100148.59;4487908;32;20092;-84
2021/12/18 08:52:28;;;;;;;14.35;4.00;;;;;;;4.32;58.02;100146.06;4487782;32;20611;-83
2021/12/18 08:54:54;;;;;;;13.05;4.05;;;;;;;4.30;57.93;100138.25;4487913;32;20080;-84
2021/12/18 08:57:19;;;;;;;14.43;3.95;;;;;;;4.39;57.54;100147.75;4487869;32;20343;-84
2021/12/18 08:59:45;;;;;;;13.55;3.67;;;;;;;4.33;57.66;100143.44;4473298;32;20135;-84
2021/12/18 09:02:11;;;;;;;11.50;3.72;;;;;;;4.48;56.97;100142.47;4487707;32;20096;-84
2021/12/18 09:04:37;;;;;;;12.00;4.10;;;;;;;4.81;56.17;100136.94;4487639;32;20148;-84
2021/12/18 09:07:03;;;;;;;15.88;4.03;;;;;;;4.65;56.54;100134.47;4473575;32;20122;-82
2021/12/18 09:09:29;;;;;;;12.32;4.10;;;;;;;4.23;57.67;100131.34;4487836;32;20104;-84
2021/12/18 09:11:54;;;;;;;11.60;3.60;;;;;;;4.35;57.19;100135.63;4460335;32;20393;-84
2021/12/18 09:14:20;;;;;;;13.65;3.97;;;;;;;4.20;57.26;100125.28;4487742;32;20097;-84
2021/12/18 09:16:45;;;;;;;11.55;3.75;;;;;;;4.41;56.92;100124.28;4487672;32;20085;-83
2021/12/18 09:19:11;;;;;;;15.10;3.50;;;;;;;4.59;56.51;100128.47;4487612;32;20152;-84
2021/12/18 09:21:36;;;;;;;9.60;3.20;;;;;;;4.90;55.65;100118.59;4473464;32;20076;-84
2021/12/18 09:24:03;;;;;;;12.60;3.70;;;;;;;4.50;56.50;100108.50;4487852;32;20119;-84
2021/12/18 09:26:28;;;;;;;13.48;3.47;;;;;;;4.36;57.03;100116.44;4473294;32;20156;-84
2021/12/18 09:28:54;;;;;;;12.43;3.65;;;;;;;4.76;56.12;100110.03;4487717;32;20349;-83
2021/12/18 09:31:19;;;;;;;12.20;3.12;;;;;;;4.56;56.70;100102.38;4473344;32;20104;-84
2021/12/18 09:33:45;;;;;;;9.55;3.37;;;;;;;4.62;56.20;100111.03;4487549;32;20348;-84
2021/12/18 09:36:10;;;;;;;11.90;4.12;;;;;;;4.67;56.19;100101.41;4487535;32;20100;-83
2021/12/18 09:38:36;;;;;;;10.93;3.85;;;;;;;4.62;56.22;100110.16;4487560;32;20373;-84
2021/12/18 09:41:02;;;;;;;11.07;3.60;;;;;;;5.09;55.32;100109.69;4473375;32;20100;-84
2021/12/18 09:43:29;;;;;;;14.57;3.95;;;;;;;4.97;55.16;100116.78;4487405;32;20092;-83
2021/12/18 09:46:01;;;;;;;11.65;3.60;;;;;;;4.99;55.63;100122.88;4487597;32;20151;-84
2021/12/18 09:48:27;;;;;;;11.85;3.60;;;;;;;5.17;55.15;100130.50;4473186;32;20104;-83
2021/12/18 09:50:56;;;;;;;14.00;4.05;;;;;;;5.20;55.00;100129.63;4487502;32;20119;-82
2021/12/18 09:53:21;;;;;;;15.00;4.10;;;;;;;5.32;54.19;100119.00;4487410;32;20172;-83
2021/12/18 09:55:47;;;;;;;13.57;4.00;;;;;;;5.19;54.67;100120.03;4472129;32;20117;-84
2021/12/18 09:58:12;;;;;;;12.35;3.80;;;;;;;5.35;54.22;100120.72;4487420;32;20173;-84
2021/12/18 10:00:38;;;;;;;12.50;4.07;;;;;;;5.25;54.38;100118.22;4487063;32;20137;-84
2021/12/18 10:03:03;;;;;;;11.07;3.62;;;;;;;5.27;54.51;100124.31;4487454;32;20162;-84
2021/12/18 10:05:32;;;;;;;15.82;3.95;;;;;;;5.22;54.73;100133.06;4487346;32;20110;-84
2021/12/18 10:08:04;;;;;;;10.82;3.78;;;;;;;5.24;54.62;100134.78;4487209;32;20101;-83
2021/12/18 10:10:30;;;;;;;12.65;4.18;;;;;;;5.19;54.99;100138.31;4487312;32;20573;-83
2021/12/18 10:13:08;;;;;;;13.20;4.05;;;;;;;5.24;54.77;100129.56;4487329;32;20123;-84
2021/12/18 10:15:34;;;;;;;10.88;3.80;;;;;;;5.38;54.38;100132.00;4487453;32;20492;-83
2021/12/18 10:18:10;;;;;;;12.10;3.87;;;;;;;5.42;54.14;100135.44;4487374;32;20143;-83
2021/12/18 10:20:37;;;;;;;11.90;3.45;;;;;;;5.42;53.97;100128.47;4487188;32;20169;-83
2021/12/18 10:23:05;;;;;;;12.90;3.55;;;;;;;5.51;53.78;100124.87;4487003;32;20092;-84
2021/12/18 10:25:30;;;;;;;13.00;4.32;;;;;;;5.46;53.87;100126.69;4487377;32;20094;-82
2021/12/18 10:28:11;;;;;;;14.20;3.50;;;;;;;5.85;53.05;100129.66;4487197;32;20096;-81
2021/12/18 10:30:45;;;;;;;12.23;3.53;;;;;;;5.66;53.41;100127.31;4487453;32;20387;-82
2021/12/18 10:33:12;;;;;;;11.20;3.53;;;;;;;5.59;53.24;100117.81;4472972;32;20503;-82
2021/12/18 10:35:53;;;;;;;11.40;3.67;;;;;;;5.85;52.71;100113.97;4487196;32;20080;-82
2021/12/18 10:38:38;;;;;;;12.32;3.75;;;;;;;6.05;52.04;100101.50;4472935;32;20104;-82
2021/12/18 10:41:29;;;;;;;11.00;3.20;;;;;;;6.05;52.09;100100.66;4487130;32;20496;-82
2021/12/18 10:43:58;;;;;;;10.88;3.00;;;;;;;6.28;51.70;100082.84;4487438;32;20088;-82
2021/12/18 10:46:24;;;;;;;11.77;3.40;;;;;;;6.33;51.21;100087.97;4487112;32;20125;-82
2021/12/18 10:49:06;;;;;;;12.52;3.45;;;;;;;6.39;51.12;100071.31;4472754;32;20099;-83
2021/12/18 10:51:33;;;;;;;9.73;3.25;;;;;;;6.49;50.33;100079.00;4487264;31;20391;-82
2021/12/18 10:54:06;;;;;;;12.20;3.40;;;;;;;6.40;50.59;100080.91;4472854;32;20149;-83
2021/12/18 10:56:52;;;;;;;10.20;2.80;;;;;;;6.58;50.51;100069.25;4485894;32;20092;-84
2021/12/18 10:59:20;;;;;;;9.57;2.67;;;;;;;6.50;49.82;100065.00;4486993;32;20151;-84
2021/12/18 11:01:53;;;;;;;12.60;3.00;;;;;;;6.33;50.55;100061.81;4486704;32;20096;-84
2021/12/18 11:04:23;;;;;;;10.27;3.03;;;;;;;6.60;50.38;100064.84;4487034;32;20111;-83
2021/12/18 11:06:49;;;;;;;9.00;2.90;;;;;;;6.92;49.16;100066.88;4486672;32;20156;-83
2021/12/18 11:09:17;;;;;;;9.85;3.75;;;;;;;6.58;49.97;100067.50;4472860;32;20097;-84
2021/12/18 11:14:13;;;;;;;9.60;2.75;;;;;;;6.68;49.48;100045.50;4486955;32;20092;-83
2021/12/18 11:16:41;;;;;;;13.52;2.70;;;;;;;6.76;49.43;100044.47;4486879;32;20084;-83
2021/12/18 11:19:11;;;;;;;11.07;3.80;;;;;;;6.84;49.29;100034.75;4486843;32;20123;-82
2021/12/18 11:21:37;;;;;;;10.73;2.83;;;;;;;7.00;48.92;100038.78;4458234;32;20076;-80
2021/12/18 11:24:05;;;;;;;11.15;3.20;;;;;;;7.07;48.68;100031.66;4472459;32;20140;-80
2021/12/18 11:26:41;;;;;;;12.37;3.05;;;;;;;7.14;48.57;100029.78;4471896;32;20537;-81
2021/12/18 11:29:12;;;;;;;10.50;3.30;;;;;;;6.92;48.89;100018.88;4486640;31;20723;-81
2021/12/18 11:31:42;;;;;;;8.82;2.37;;;;;;;7.16;48.42;100020.97;4486681;31;20145;-82
2021/12/18 11:34:08;;;;;;;9.55;3.10;;;;;;;7.18;48.24;100021.81;4485896;32;20163;-82
2021/12/18 11:36:38;;;;;;;9.52;2.95;;;;;;;7.30;48.18;100020.66;4486747;31;20080;-82
2021/12/18 11:39:04;;;;;;;11.20;3.40;;;;;;;7.23;48.46;100013.84;4485253;32;20119;-83
2021/12/18 11:41:29;;;;;;;10.65;3.10;;;;;;;7.14;48.75;100019.28;4485505;32;20116;-82
2021/12/18 11:43:55;;;;;;;12.45;3.10;;;;;;;7.23;48.24;100026.97;4485417;32;20149;-82
2021/12/18 11:46:36;;;;;;;8.68;2.87;;;;;;;6.99;49.06;100018.72;4486622;31;20133;-83
2021/12/18 11:49:08;;;;;;;9.13;3.20;;;;;;;7.11;49.05;100020.22;4485586;32;20084;-82
2021/12/18 11:51:34;;;;;;;11.85;3.42;;;;;;;7.43;48.26;100009.03;4485031;32;20490;-82
2021/12/18 11:54:03;;;;;;;11.07;3.10;;;;;;;7.13;48.61;100010.56;4486268;31;20100;-83
2021/12/18 11:56:45;;;;;;;9.63;3.20;;;;;;;6.92;49.20;100003.16;4486285;31;20137;-82
2021/12/18 11:59:10;;;;;;;10.10;3.03;;;;;;;6.78;49.36;100004.28;4485136;32;20104;-83
2021/12/18 12:01:44;;;;;;;11.93;3.25;;;;;;;6.98;49.27;99998.63;4485657;31;20134;-82
2021/12/18 12:04:09;;;;;;;8.68;2.80;;;;;;;7.18;49.04;99995.59;4486177;31;20432;-83
2021/12/18 12:06:37;;;;;;;10.93;3.17;;;;;;;6.99;49.58;99989.91;4484864;32;20125;-83
2021/12/18 12:12:02;;;;;;;9.30;2.80;;;;;;;7.24;49.16;99990.25;4485027;32;20096;-82
2021/12/18 12:14:41;;;;;;;11.07;2.83;;;;;;;7.02;50.03;99986.34;4484529;32;20186;-84
2021/12/18 12:17:21;;;;;;;9.70;2.90;;;;;;;6.98;50.26;99997.78;4485109;32;20508;-81